sensor_id;sensor_type;location;lat;lon;timestamp;temperature;humidity
56512;DHT22;42408;53.238;5.686;2023-05-24T00:01:18;10.10;99.90
56512;DHT22;42408;53.238;5.686;2023-05-24T00:03:50;10.20;99.90
56512;DHT22;42408;53.238;5.686;2023-05-24T00:06:17;10.10;99.90
56512;DHT22;42408;53.238;5.686;2023-05-24T00:08:43;10.00;99.90
56512;DHT22;42408;53.238;5.686;2023-05-24T00:11:08;10.10;99.90
56512;DHT22;42408;53.238;5.686;2023-05-24T00:13:36;10.10;99.90
56512;DHT22;42408;53.238;5.686;2023-05-24T00:16:01;10.10;99.90
56512;DHT22;42408;53.238;5.686;2023-05-24T00:18:27;10.10;99.90
56512;DHT22;42408;53.238;5.686;2023-05-24T00:20:56;10.10;99.90
56512;DHT22;42408;53.238;5.686;2023-05-24T00:23:23;10.10;99.90
56512;DHT22;42408;53.238;5.686;2023-05-24T00:25:49;10.10;99.90
56512;DHT22;42408;53.238;5.686;2023-05-24T00:28:14;10.10;99.90
56512;DHT22;42408;53.238;5.686;2023-05-24T00:30:40;10.10;99.90
56512;DHT22;42408;53.238;5.686;2023-05-24T00:33:06;10.10;99.90
56512;DHT22;42408;53.238;5.686;2023-05-24T00:35:31;10.10;99.90
56512;DHT22;42408;53.238;5.686;2023-05-24T00:37:57;10.10;99.90
56512;DHT22;42408;53.238;5.686;2023-05-24T00:40:22;10.10;99.90
56512;DHT22;42408;53.238;5.686;2023-05-24T00:42:48;10.10;99.90
56512;DHT22;42408;53.238;5.686;2023-05-24T00:45:14;10.10;99.90
56512;DHT22;42408;53.238;5.686;2023-05-24T00:47:39;10.10;99.90
56512;DHT22;42408;53.238;5.686;2023-05-24T00:50:07;10.10;99.90
56512;DHT22;42408;53.238;5.686;2023-05-24T00:52:34;10.10;99.90
56512;DHT22;42408;53.238;5.686;2023-05-24T00:55:01;10.10;99.90
56512;DHT22;42408;53.238;5.686;2023-05-24T00:57:27;10.10;99.90
56512;DHT22;42408;53.238;5.686;2023-05-24T00:59:54;10.20;99.90
56512;DHT22;42408;53.238;5.686;2023-05-24T01:02:20;10.20;99.90
56512;DHT22;42408;53.238;5.686;2023-05-24T01:04:46;10.20;99.90
56512;DHT22;42408;53.238;5.686;2023-05-24T01:07:41;10.20;99.90
56512;DHT22;42408;53.238;5.686;2023-05-24T01:10:16;10.20;99.90
56512;DHT22;42408;53.238;5.686;2023-05-24T01:12:47;10.10;99.90
56512;DHT22;42408;53.238;5.686;2023-05-24T01:15:23;10.20;99.90
56512;DHT22;42408;53.238;5.686;2023-05-24T01:18:06;10.20;99.90
56512;DHT22;42408;53.238;5.686;2023-05-24T01:20:33;10.20;99.90
56512;DHT22;42408;53.238;5.686;2023-05-24T01:28:07;10.20;99.90
56512;DHT22;42408;53.238;5.686;2023-05-24T01:30:33;10.20;99.90
56512;DHT22;42408;53.238;5.686;2023-05-24T01:33:00;10.20;99.90
56512;DHT22;42408;53.238;5.686;2023-05-24T01:35:26;10.30;99.90
56512;DHT22;42408;53.238;5.686;2023-05-24T01:37:52;10.20;99.90
56512;DHT22;42408;53.238;5.686;2023-05-24T01:40:18;10.20;99.90
56512;DHT22;42408;53.238;5.686;2023-05-24T01:42:48;10.20;99.90
56512;DHT22;42408;53.238;5.686;2023-05-24T01:45:39;10.20;99.90
56512;DHT22;42408;53.238;5.686;2023-05-24T01:48:15;10.20;99.90
56512;DHT22;42408;53.238;5.686;2023-05-24T01:50:59;10.20;99.90
56512;DHT22;42408;53.238;5.686;2023-05-24T01:53:32;10.20;99.90
56512;DHT22;42408;53.238;5.686;2023-05-24T01:56:01;10.20;99.90
56512;DHT22;42408;53.238;5.686;2023-05-24T01:58:29;10.20;99.90
56512;DHT22;42408;53.238;5.686;2023-05-24T02:00:56;10.10;99.90
56512;DHT22;42408;53.238;5.686;2023-05-24T02:03:22;10.20;99.90
56512;DHT22;42408;53.238;5.686;2023-05-24T02:05:47;10.10;99.90
56512;DHT22;42408;53.238;5.686;2023-05-24T02:08:13;10.10;99.90
56512;DHT22;42408;53.238;5.686;2023-05-24T02:10:39;10.10;99.90
56512;DHT22;42408;53.238;5.686;2023-05-24T02:13:06;10.10;99.90
56512;DHT22;42408;53.238;5.686;2023-05-24T02:15:33;10.10;99.90
56512;DHT22;42408;53.238;5.686;2023-05-24T02:18:00;10.10;99.90
56512;DHT22;42408;53.238;5.686;2023-05-24T02:20:29;10.10;99.90
56512;DHT22;42408;53.238;5.686;2023-05-24T02:23:04;10.10;99.90
56512;DHT22;42408;53.238;5.686;2023-05-24T02:25:30;10.10;99.90
56512;DHT22;42408;53.238;5.686;2023-05-24T02:27:56;10.10;99.90
56512;DHT22;42408;53.238;5.686;2023-05-24T02:30:22;10.10;99.90
56512;DHT22;42408;53.238;5.686;2023-05-24T02:32:48;10.10;99.90
56512;DHT22;42408;53.238;5.686;2023-05-24T02:35:13;10.10;99.90
56512;DHT22;42408;53.238;5.686;2023-05-24T02:37:39;10.10;99.90
56512;DHT22;42408;53.238;5.686;2023-05-24T02:40:05;10.10;99.90
56512;DHT22;42408;53.238;5.686;2023-05-24T02:42:32;10.10;99.90
56512;DHT22;42408;53.238;5.686;2023-05-24T02:44:57;10.10;99.90
56512;DHT22;42408;53.238;5.686;2023-05-24T02:47:23;10.00;99.90
56512;DHT22;42408;53.238;5.686;2023-05-24T02:49:51;10.00;99.90
56512;DHT22;42408;53.238;5.686;2023-05-24T02:52:17;10.00;99.90
56512;DHT22;42408;53.238;5.686;2023-05-24T02:54:46;10.00;99.90
56512;DHT22;42408;53.238;5.686;2023-05-24T02:57:12;9.90;99.90
56512;DHT22;42408;53.238;5.686;2023-05-24T02:59:37;10.00;99.90
56512;DHT22;42408;53.238;5.686;2023-05-24T03:02:03;9.90;99.90
56512;DHT22;42408;53.238;5.686;2023-05-24T03:04:29;9.90;99.90
56512;DHT22;42408;53.238;5.686;2023-05-24T03:06:54;9.90;99.90
56512;DHT22;42408;53.238;5.686;2023-05-24T03:09:20;9.90;99.90
56512;DHT22;42408;53.238;5.686;2023-05-24T03:11:46;9.80;99.90
56512;DHT22;42408;53.238;5.686;2023-05-24T03:14:11;9.90;99.90
56512;DHT22;42408;53.238;5.686;2023-05-24T03:16:37;9.90;99.90
56512;DHT22;42408;53.238;5.686;2023-05-24T03:19:03;9.90;99.90
56512;DHT22;42408;53.238;5.686;2023-05-24T03:21:30;9.90;99.90
56512;DHT22;42408;53.238;5.686;2023-05-24T03:23:56;9.90;99.90
56512;DHT22;42408;53.238;5.686;2023-05-24T03:26:22;9.90;99.90
56512;DHT22;42408;53.238;5.686;2023-05-24T03:28:48;9.80;99.90
56512;DHT22;42408;53.238;5.686;2023-05-24T03:31:15;9.80;99.90
56512;DHT22;42408;53.238;5.686;2023-05-24T03:33:41;9.90;99.90
56512;DHT22;42408;53.238;5.686;2023-05-24T03:36:06;9.90;99.90
56512;DHT22;42408;53.238;5.686;2023-05-24T03:38:32;9.90;99.90
56512;DHT22;42408;53.238;5.686;2023-05-24T03:40:58;9.90;99.90
56512;DHT22;42408;53.238;5.686;2023-05-24T03:43:24;9.90;99.90
56512;DHT22;42408;53.238;5.686;2023-05-24T03:45:50;9.90;99.90
56512;DHT22;42408;53.238;5.686;2023-05-24T03:48:16;10.00;99.90
56512;DHT22;42408;53.238;5.686;2023-05-24T03:50:41;9.90;99.90
56512;DHT22;42408;53.238;5.686;2023-05-24T03:53:07;9.90;99.90
56512;DHT22;42408;53.238;5.686;2023-05-24T03:55:33;10.00;99.90
56512;DHT22;42408;53.238;5.686;2023-05-24T03:57:58;10.00;99.90
56512;DHT22;42408;53.238;5.686;2023-05-24T04:00:24;10.00;99.90
56512;DHT22;42408;53.238;5.686;2023-05-24T04:02:50;10.00;99.90
56512;DHT22;42408;53.238;5.686;2023-05-24T04:05:16;10.00;99.90
56512;DHT22;42408;53.238;5.686;2023-05-24T04:07:41;10.00;99.90
56512;DHT22;42408;53.238;5.686;2023-05-24T04:10:09;10.00;99.90
56512;DHT22;42408;53.238;5.686;2023-05-24T04:12:35;10.00;99.90
56512;DHT22;42408;53.238;5.686;2023-05-24T04:15:01;10.10;99.90
56512;DHT22;42408;53.238;5.686;2023-05-24T04:17:27;10.00;99.90
56512;DHT22;42408;53.238;5.686;2023-05-24T04:19:55;10.00;99.90
56512;DHT22;42408;53.238;5.686;2023-05-24T04:22:20;10.10;99.90
56512;DHT22;42408;53.238;5.686;2023-05-24T04:24:46;10.10;99.90
56512;DHT22;42408;53.238;5.686;2023-05-24T04:27:11;10.10;99.90
56512;DHT22;42408;53.238;5.686;2023-05-24T04:29:40;10.10;99.90
56512;DHT22;42408;53.238;5.686;2023-05-24T04:32:06;10.20;99.90
56512;DHT22;42408;53.238;5.686;2023-05-24T04:34:34;10.20;99.90
56512;DHT22;42408;53.238;5.686;2023-05-24T04:37:00;10.20;99.90
56512;DHT22;42408;53.238;5.686;2023-05-24T04:39:27;10.30;99.90
56512;DHT22;42408;53.238;5.686;2023-05-24T04:41:53;10.30;99.90
56512;DHT22;42408;53.238;5.686;2023-05-24T04:44:20;10.30;99.90
56512;DHT22;42408;53.238;5.686;2023-05-24T04:46:47;10.30;99.90
56512;DHT22;42408;53.238;5.686;2023-05-24T04:49:13;10.40;99.90
56512;DHT22;42408;53.238;5.686;2023-05-24T04:51:38;10.40;99.90
56512;DHT22;42408;53.238;5.686;2023-05-24T04:54:04;10.40;99.90
56512;DHT22;42408;53.238;5.686;2023-05-24T04:56:34;10.40;99.90
56512;DHT22;42408;53.238;5.686;2023-05-24T04:59:00;10.50;99.90
56512;DHT22;42408;53.238;5.686;2023-05-24T05:01:26;10.50;99.90
56512;DHT22;42408;53.238;5.686;2023-05-24T05:03:52;10.50;99.90
56512;DHT22;42408;53.238;5.686;2023-05-24T05:06:17;10.60;99.90
56512;DHT22;42408;53.238;5.686;2023-05-24T05:08:43;10.60;99.90
56512;DHT22;42408;53.238;5.686;2023-05-24T05:11:09;10.70;99.90
56512;DHT22;42408;53.238;5.686;2023-05-24T05:13:34;10.70;99.90
56512;DHT22;42408;53.238;5.686;2023-05-24T05:16:01;10.80;99.90
56512;DHT22;42408;53.238;5.686;2023-05-24T05:18:26;10.90;99.90
56512;DHT22;42408;53.238;5.686;2023-05-24T05:20:52;10.80;99.90
56512;DHT22;42408;53.238;5.686;2023-05-24T05:23:18;10.90;99.90
56512;DHT22;42408;53.238;5.686;2023-05-24T05:25:43;11.00;99.90
56512;DHT22;42408;53.238;5.686;2023-05-24T05:28:09;11.10;99.90
56512;DHT22;42408;53.238;5.686;2023-05-24T05:30:34;11.10;99.90
56512;DHT22;42408;53.238;5.686;2023-05-24T05:33:00;11.20;99.90
56512;DHT22;42408;53.238;5.686;2023-05-24T05:35:26;11.20;99.90
56512;DHT22;42408;53.238;5.686;2023-05-24T05:37:51;11.30;99.90
56512;DHT22;42408;53.238;5.686;2023-05-24T05:40:17;11.30;99.90
56512;DHT22;42408;53.238;5.686;2023-05-24T05:42:43;11.30;99.90
56512;DHT22;42408;53.238;5.686;2023-05-24T05:45:09;11.40;99.90
56512;DHT22;42408;53.238;5.686;2023-05-24T05:47:34;11.40;99.90
56512;DHT22;42408;53.238;5.686;2023-05-24T05:50:00;11.40;99.90
56512;DHT22;42408;53.238;5.686;2023-05-24T05:52:26;11.50;99.90
56512;DHT22;42408;53.238;5.686;2023-05-24T05:54:51;11.60;99.90
56512;DHT22;42408;53.238;5.686;2023-05-24T05:57:17;11.60;99.90
56512;DHT22;42408;53.238;5.686;2023-05-24T05:59:48;11.60;99.90
56512;DHT22;42408;53.238;5.686;2023-05-24T06:02:14;11.70;99.90
56512;DHT22;42408;53.238;5.686;2023-05-24T06:04:40;11.70;99.90
56512;DHT22;42408;53.238;5.686;2023-05-24T06:07:05;11.80;99.90
56512;DHT22;42408;53.238;5.686;2023-05-24T06:09:31;11.90;99.90
56512;DHT22;42408;53.238;5.686;2023-05-24T06:11:56;12.00;99.90
56512;DHT22;42408;53.238;5.686;2023-05-24T06:14:22;12.00;99.90
56512;DHT22;42408;53.238;5.686;2023-05-24T06:16:49;12.10;99.90
56512;DHT22;42408;53.238;5.686;2023-05-24T06:19:17;12.30;99.90
56512;DHT22;42408;53.238;5.686;2023-05-24T06:21:43;12.30;99.90
56512;DHT22;42408;53.238;5.686;2023-05-24T06:24:17;12.40;99.90
56512;DHT22;42408;53.238;5.686;2023-05-24T06:26:46;12.50;99.90
56512;DHT22;42408;53.238;5.686;2023-05-24T06:29:12;12.60;99.90
56512;DHT22;42408;53.238;5.686;2023-05-24T06:31:38;12.70;99.90
56512;DHT22;42408;53.238;5.686;2023-05-24T06:34:04;12.90;99.90
56512;DHT22;42408;53.238;5.686;2023-05-24T06:36:30;13.50;99.90
56512;DHT22;42408;53.238;5.686;2023-05-24T06:39:01;13.80;99.90
56512;DHT22;42408;53.238;5.686;2023-05-24T06:41:28;14.00;99.90
56512;DHT22;42408;53.238;5.686;2023-05-24T06:43:54;14.50;99.90
56512;DHT22;42408;53.238;5.686;2023-05-24T06:46:20;15.60;99.90
56512;DHT22;42408;53.238;5.686;2023-05-24T06:48:45;16.30;99.90
56512;DHT22;42408;53.238;5.686;2023-05-24T06:51:11;16.70;99.90
56512;DHT22;42408;53.238;5.686;2023-05-24T06:53:37;16.90;99.90
56512;DHT22;42408;53.238;5.686;2023-05-24T06:56:02;17.50;99.90
56512;DHT22;42408;53.238;5.686;2023-05-24T06:58:29;17.50;99.90
56512;DHT22;42408;53.238;5.686;2023-05-24T07:00:54;17.40;99.90
56512;DHT22;42408;53.238;5.686;2023-05-24T07:03:20;17.70;99.90
56512;DHT22;42408;53.238;5.686;2023-05-24T07:05:46;17.70;99.90
56512;DHT22;42408;53.238;5.686;2023-05-24T07:08:12;17.70;99.90
56512;DHT22;42408;53.238;5.686;2023-05-24T07:10:37;17.40;99.90
56512;DHT22;42408;53.238;5.686;2023-05-24T07:13:03;17.40;99.90
56512;DHT22;42408;53.238;5.686;2023-05-24T07:15:29;17.70;99.90
56512;DHT22;42408;53.238;5.686;2023-05-24T07:17:55;17.70;99.90
56512;DHT22;42408;53.238;5.686;2023-05-24T07:20:20;17.50;99.90
56512;DHT22;42408;53.238;5.686;2023-05-24T07:22:46;17.50;99.90
56512;DHT22;42408;53.238;5.686;2023-05-24T07:25:11;17.60;99.90
56512;DHT22;42408;53.238;5.686;2023-05-24T07:27:37;18.00;99.90
56512;DHT22;42408;53.238;5.686;2023-05-24T07:30:03;18.10;99.90
56512;DHT22;42408;53.238;5.686;2023-05-24T07:32:29;18.00;99.90
56512;DHT22;42408;53.238;5.686;2023-05-24T07:34:57;18.10;99.90
56512;DHT22;42408;53.238;5.686;2023-05-24T07:37:23;18.10;99.90
56512;DHT22;42408;53.238;5.686;2023-05-24T07:39:50;18.40;99.90
56512;DHT22;42408;53.238;5.686;2023-05-24T07:42:16;18.60;99.90
56512;DHT22;42408;53.238;5.686;2023-05-24T07:44:42;18.50;99.90
56512;DHT22;42408;53.238;5.686;2023-05-24T07:47:07;18.20;99.90
56512;DHT22;42408;53.238;5.686;2023-05-24T07:49:33;17.90;99.90
56512;DHT22;42408;53.238;5.686;2023-05-24T07:51:58;18.10;99.90
56512;DHT22;42408;53.238;5.686;2023-05-24T07:54:24;18.10;99.90
56512;DHT22;42408;53.238;5.686;2023-05-24T07:56:51;17.90;99.90
56512;DHT22;42408;53.238;5.686;2023-05-24T07:59:16;17.80;99.90
56512;DHT22;42408;53.238;5.686;2023-05-24T08:01:42;18.00;99.90
56512;DHT22;42408;53.238;5.686;2023-05-24T08:04:08;18.10;99.90
56512;DHT22;42408;53.238;5.686;2023-05-24T08:06:35;18.20;99.90
56512;DHT22;42408;53.238;5.686;2023-05-24T08:09:04;18.10;99.90
56512;DHT22;42408;53.238;5.686;2023-05-24T08:11:31;18.20;99.90
56512;DHT22;42408;53.238;5.686;2023-05-24T08:13:57;18.50;99.90
56512;DHT22;42408;53.238;5.686;2023-05-24T08:16:23;18.40;99.90
56512;DHT22;42408;53.238;5.686;2023-05-24T08:18:49;18.30;99.90
56512;DHT22;42408;53.238;5.686;2023-05-24T08:21:14;18.40;99.90
56512;DHT22;42408;53.238;5.686;2023-05-24T08:23:40;18.20;99.90
56512;DHT22;42408;53.238;5.686;2023-05-24T08:26:06;18.10;99.90
56512;DHT22;42408;53.238;5.686;2023-05-24T08:28:33;17.90;99.90
56512;DHT22;42408;53.238;5.686;2023-05-24T08:30:58;17.60;99.90
56512;DHT22;42408;53.238;5.686;2023-05-24T08:33:24;17.40;99.90
56512;DHT22;42408;53.238;5.686;2023-05-24T08:35:50;17.30;99.90
56512;DHT22;42408;53.238;5.686;2023-05-24T08:38:16;17.50;99.90
56512;DHT22;42408;53.238;5.686;2023-05-24T08:40:42;17.40;99.90
56512;DHT22;42408;53.238;5.686;2023-05-24T08:43:09;17.30;99.90
56512;DHT22;42408;53.238;5.686;2023-05-24T08:45:37;17.30;99.90
56512;DHT22;42408;53.238;5.686;2023-05-24T08:48:07;17.40;99.90
56512;DHT22;42408;53.238;5.686;2023-05-24T08:50:33;17.60;99.90
56512;DHT22;42408;53.238;5.686;2023-05-24T08:52:59;17.60;99.90
56512;DHT22;42408;53.238;5.686;2023-05-24T08:55:28;17.60;99.90
56512;DHT22;42408;53.238;5.686;2023-05-24T08:57:54;17.60;99.90
56512;DHT22;42408;53.238;5.686;2023-05-24T09:00:21;17.60;99.90
56512;DHT22;42408;53.238;5.686;2023-05-24T09:02:48;17.60;99.90
56512;DHT22;42408;53.238;5.686;2023-05-24T09:05:14;17.40;99.90
56512;DHT22;42408;53.238;5.686;2023-05-24T09:07:47;17.30;99.90
56512;DHT22;42408;53.238;5.686;2023-05-24T09:10:13;17.30;99.90
56512;DHT22;42408;53.238;5.686;2023-05-24T09:12:43;17.30;99.90
56512;DHT22;42408;53.238;5.686;2023-05-24T09:15:10;17.30;99.90
56512;DHT22;42408;53.238;5.686;2023-05-24T09:17:37;17.50;99.90
56512;DHT22;42408;53.238;5.686;2023-05-24T09:20:07;17.60;99.90
56512;DHT22;42408;53.238;5.686;2023-05-24T09:22:33;17.90;99.90
56512;DHT22;42408;53.238;5.686;2023-05-24T09:25:02;18.10;99.90
56512;DHT22;42408;53.238;5.686;2023-05-24T09:27:32;18.20;99.90
56512;DHT22;42408;53.238;5.686;2023-05-24T09:29:58;18.20;99.90
56512;DHT22;42408;53.238;5.686;2023-05-24T09:32:24;18.30;99.90
56512;DHT22;42408;53.238;5.686;2023-05-24T09:34:51;18.40;99.90
56512;DHT22;42408;53.238;5.686;2023-05-24T09:37:19;18.40;99.90
56512;DHT22;42408;53.238;5.686;2023-05-24T09:39:47;18.30;99.90
56512;DHT22;42408;53.238;5.686;2023-05-24T09:42:20;18.30;99.90
56512;DHT22;42408;53.238;5.686;2023-05-24T09:47:32;18.10;99.90
56512;DHT22;42408;53.238;5.686;2023-05-24T09:49:59;18.10;99.90
56512;DHT22;42408;53.238;5.686;2023-05-24T09:52:25;18.00;99.90
56512;DHT22;42408;53.238;5.686;2023-05-24T09:54:51;18.00;99.90
56512;DHT22;42408;53.238;5.686;2023-05-24T09:57:17;17.80;99.90
56512;DHT22;42408;53.238;5.686;2023-05-24T09:59:43;17.70;99.90
56512;DHT22;42408;53.238;5.686;2023-05-24T10:02:09;17.60;99.90
56512;DHT22;42408;53.238;5.686;2023-05-24T10:04:36;17.50;99.90
56512;DHT22;42408;53.238;5.686;2023-05-24T10:07:03;17.40;99.90
56512;DHT22;42408;53.238;5.686;2023-05-24T10:09:30;17.40;99.90
56512;DHT22;42408;53.238;5.686;2023-05-24T10:12:06;17.40;99.90
56512;DHT22;42408;53.238;5.686;2023-05-24T10:14:33;17.40;99.90
56512;DHT22;42408;53.238;5.686;2023-05-24T10:17:04;17.40;99.90
56512;DHT22;42408;53.238;5.686;2023-05-24T10:19:33;17.30;99.90
56512;DHT22;42408;53.238;5.686;2023-05-24T10:22:01;17.10;99.90
56512;DHT22;42408;53.238;5.686;2023-05-24T10:24:43;17.00;99.90
56512;DHT22;42408;53.238;5.686;2023-05-24T10:27:14;17.00;99.90
56512;DHT22;42408;53.238;5.686;2023-05-24T10:32:15;17.00;99.90
56512;DHT22;42408;53.238;5.686;2023-05-24T10:34:43;17.00;99.90
56512;DHT22;42408;53.238;5.686;2023-05-24T10:37:10;17.10;99.90
56512;DHT22;42408;53.238;5.686;2023-05-24T10:39:35;17.00;99.90
56512;DHT22;42408;53.238;5.686;2023-05-24T10:42:03;17.00;99.90
56512;DHT22;42408;53.238;5.686;2023-05-24T10:44:29;17.00;99.90
56512;DHT22;42408;53.238;5.686;2023-05-24T10:49:28;16.90;99.90
56512;DHT22;42408;53.238;5.686;2023-05-24T10:52:01;16.80;99.90
56512;DHT22;42408;53.238;5.686;2023-05-24T10:54:27;16.70;99.90
56512;DHT22;42408;53.238;5.686;2023-05-24T10:56:53;16.60;99.90
56512;DHT22;42408;53.238;5.686;2023-05-24T10:59:33;16.60;99.90
56512;DHT22;42408;53.238;5.686;2023-05-24T11:02:04;16.60;99.90
56512;DHT22;42408;53.238;5.686;2023-05-24T11:04:32;16.60;99.90
56512;DHT22;42408;53.238;5.686;2023-05-24T11:07:04;16.50;99.90
56512;DHT22;42408;53.238;5.686;2023-05-24T11:09:31;16.50;99.90
56512;DHT22;42408;53.238;5.686;2023-05-24T11:12:03;16.50;99.90
56512;DHT22;42408;53.238;5.686;2023-05-24T11:14:37;16.50;99.90
56512;DHT22;42408;53.238;5.686;2023-05-24T11:17:04;16.60;99.90
56512;DHT22;42408;53.238;5.686;2023-05-24T11:19:37;16.70;99.90
56512;DHT22;42408;53.238;5.686;2023-05-24T11:22:06;16.90;99.90
56512;DHT22;42408;53.238;5.686;2023-05-24T11:24:32;17.10;99.90
56512;DHT22;42408;53.238;5.686;2023-05-24T11:26:59;17.30;99.90
56512;DHT22;42408;53.238;5.686;2023-05-24T11:29:27;17.40;99.90
56512;DHT22;42408;53.238;5.686;2023-05-24T11:31:53;17.60;99.90
56512;DHT22;42408;53.238;5.686;2023-05-24T11:34:20;17.60;99.90
56512;DHT22;42408;53.238;5.686;2023-05-24T11:36:46;17.70;99.90
56512;DHT22;42408;53.238;5.686;2023-05-24T11:39:13;17.90;99.90
56512;DHT22;42408;53.238;5.686;2023-05-24T11:41:39;18.00;99.90
56512;DHT22;42408;53.238;5.686;2023-05-24T11:44:06;18.10;99.90
56512;DHT22;42408;53.238;5.686;2023-05-24T11:46:32;18.20;99.90
56512;DHT22;42408;53.238;5.686;2023-05-24T11:48:58;18.30;99.90
56512;DHT22;42408;53.238;5.686;2023-05-24T11:51:32;18.30;99.90
56512;DHT22;42408;53.238;5.686;2023-05-24T11:53:58;18.40;99.90
56512;DHT22;42408;53.238;5.686;2023-05-24T11:56:26;18.40;99.90
56512;DHT22;42408;53.238;5.686;2023-05-24T11:59:14;18.40;99.90
56512;DHT22;42408;53.238;5.686;2023-05-24T12:01:40;18.40;99.90
56512;DHT22;42408;53.238;5.686;2023-05-24T12:04:06;18.30;99.90
56512;DHT22;42408;53.238;5.686;2023-05-24T12:06:38;18.30;99.90
56512;DHT22;42408;53.238;5.686;2023-05-24T12:09:05;18.30;99.90
56512;DHT22;42408;53.238;5.686;2023-05-24T12:11:44;18.20;99.90
56512;DHT22;42408;53.238;5.686;2023-05-24T12:14:11;18.30;99.90
56512;DHT22;42408;53.238;5.686;2023-05-24T12:16:38;18.20;99.90
56512;DHT22;42408;53.238;5.686;2023-05-24T12:19:04;18.30;99.90
56512;DHT22;42408;53.238;5.686;2023-05-24T12:21:31;18.40;99.90
56512;DHT22;42408;53.238;5.686;2023-05-24T12:24:12;18.40;99.90
56512;DHT22;42408;53.238;5.686;2023-05-24T12:26:46;18.40;99.90
56512;DHT22;42408;53.238;5.686;2023-05-24T12:29:13;18.40;99.90
56512;DHT22;42408;53.238;5.686;2023-05-24T12:31:39;18.40;99.90
56512;DHT22;42408;53.238;5.686;2023-05-24T12:34:09;18.40;99.90
56512;DHT22;42408;53.238;5.686;2023-05-24T12:36:35;18.40;99.90
56512;DHT22;42408;53.238;5.686;2023-05-24T12:39:26;18.60;99.90
56512;DHT22;42408;53.238;5.686;2023-05-24T12:41:58;18.60;99.90
56512;DHT22;42408;53.238;5.686;2023-05-24T12:44:31;18.70;99.90
56512;DHT22;42408;53.238;5.686;2023-05-24T12:46:57;18.70;99.90
56512;DHT22;42408;53.238;5.686;2023-05-24T12:49:24;18.80;99.90
56512;DHT22;42408;53.238;5.686;2023-05-24T12:51:50;18.80;99.90
56512;DHT22;42408;53.238;5.686;2023-05-24T12:54:21;18.80;99.90
56512;DHT22;42408;53.238;5.686;2023-05-24T12:56:47;18.90;99.90
56512;DHT22;42408;53.238;5.686;2023-05-24T12:59:13;19.10;99.90
56512;DHT22;42408;53.238;5.686;2023-05-24T13:01:39;19.20;99.90
56512;DHT22;42408;53.238;5.686;2023-05-24T13:04:05;19.30;99.90
56512;DHT22;42408;53.238;5.686;2023-05-24T13:06:30;19.40;99.90
56512;DHT22;42408;53.238;5.686;2023-05-24T13:08:56;19.50;99.90
56512;DHT22;42408;53.238;5.686;2023-05-24T13:11:22;19.50;99.90
56512;DHT22;42408;53.238;5.686;2023-05-24T13:13:50;19.50;99.90
56512;DHT22;42408;53.238;5.686;2023-05-24T13:16:15;19.50;99.90
56512;DHT22;42408;53.238;5.686;2023-05-24T13:18:41;19.50;99.90
56512;DHT22;42408;53.238;5.686;2023-05-24T13:21:07;19.40;99.90
56512;DHT22;42408;53.238;5.686;2023-05-24T13:23:33;19.40;99.90
56512;DHT22;42408;53.238;5.686;2023-05-24T13:26:02;19.50;99.90
56512;DHT22;42408;53.238;5.686;2023-05-24T13:28:29;19.50;99.90
56512;DHT22;42408;53.238;5.686;2023-05-24T13:30:55;19.50;99.90
56512;DHT22;42408;53.238;5.686;2023-05-24T13:33:21;19.60;99.90
56512;DHT22;42408;53.238;5.686;2023-05-24T13:35:46;19.60;99.90
56512;DHT22;42408;53.238;5.686;2023-05-24T13:38:12;19.60;99.90
56512;DHT22;42408;53.238;5.686;2023-05-24T13:40:39;19.60;99.90
56512;DHT22;42408;53.238;5.686;2023-05-24T13:43:05;19.50;99.90
56512;DHT22;42408;53.238;5.686;2023-05-24T13:45:31;19.40;99.90
56512;DHT22;42408;53.238;5.686;2023-05-24T13:47:58;19.40;99.90
56512;DHT22;42408;53.238;5.686;2023-05-24T13:50:29;19.30;99.90
56512;DHT22;42408;53.238;5.686;2023-05-24T13:52:57;19.10;99.90
56512;DHT22;42408;53.238;5.686;2023-05-24T13:55:23;19.10;99.90
56512;DHT22;42408;53.238;5.686;2023-05-24T13:57:48;19.10;99.90
56512;DHT22;42408;53.238;5.686;2023-05-24T14:00:14;19.10;99.90
56512;DHT22;42408;53.238;5.686;2023-05-24T14:02:42;19.10;99.90
56512;DHT22;42408;53.238;5.686;2023-05-24T14:05:08;19.20;99.90
56512;DHT22;42408;53.238;5.686;2023-05-24T14:07:33;19.20;99.90
56512;DHT22;42408;53.238;5.686;2023-05-24T14:09:59;19.20;99.90
56512;DHT22;42408;53.238;5.686;2023-05-24T14:12:25;19.20;99.90
56512;DHT22;42408;53.238;5.686;2023-05-24T14:14:51;19.30;99.90
56512;DHT22;42408;53.238;5.686;2023-05-24T14:17:17;19.30;99.90
56512;DHT22;42408;53.238;5.686;2023-05-24T14:19:43;19.20;99.90
56512;DHT22;42408;53.238;5.686;2023-05-24T14:22:08;19.00;99.90
56512;DHT22;42408;53.238;5.686;2023-05-24T14:24:34;19.00;99.90
56512;DHT22;42408;53.238;5.686;2023-05-24T14:26:59;19.00;99.90
56512;DHT22;42408;53.238;5.686;2023-05-24T14:29:26;18.80;99.90
56512;DHT22;42408;53.238;5.686;2023-05-24T14:31:52;18.70;99.90
56512;DHT22;42408;53.238;5.686;2023-05-24T14:34:17;18.80;99.90
56512;DHT22;42408;53.238;5.686;2023-05-24T14:36:43;18.80;99.90
56512;DHT22;42408;53.238;5.686;2023-05-24T14:39:09;18.80;99.90
56512;DHT22;42408;53.238;5.686;2023-05-24T14:41:35;18.90;99.90
56512;DHT22;42408;53.238;5.686;2023-05-24T14:44:01;18.90;99.90
56512;DHT22;42408;53.238;5.686;2023-05-24T14:46:27;19.00;99.90
56512;DHT22;42408;53.238;5.686;2023-05-24T14:48:52;19.10;99.90
56512;DHT22;42408;53.238;5.686;2023-05-24T14:51:18;19.10;99.90
56512;DHT22;42408;53.238;5.686;2023-05-24T14:53:44;19.20;99.90
56512;DHT22;42408;53.238;5.686;2023-05-24T14:56:10;19.20;99.90
56512;DHT22;42408;53.238;5.686;2023-05-24T14:58:38;19.20;99.90
56512;DHT22;42408;53.238;5.686;2023-05-24T15:01:04;19.20;99.90
56512;DHT22;42408;53.238;5.686;2023-05-24T15:03:31;19.10;99.90
56512;DHT22;42408;53.238;5.686;2023-05-24T15:05:57;19.10;99.90
56512;DHT22;42408;53.238;5.686;2023-05-24T15:08:23;19.00;99.90
56512;DHT22;42408;53.238;5.686;2023-05-24T15:10:48;19.00;99.90
56512;DHT22;42408;53.238;5.686;2023-05-24T15:13:14;19.00;99.90
56512;DHT22;42408;53.238;5.686;2023-05-24T15:15:40;18.90;99.90
56512;DHT22;42408;53.238;5.686;2023-05-24T15:18:06;18.80;99.90
56512;DHT22;42408;53.238;5.686;2023-05-24T15:20:32;18.70;99.90
56512;DHT22;42408;53.238;5.686;2023-05-24T15:22:59;18.60;99.90
56512;DHT22;42408;53.238;5.686;2023-05-24T15:25:24;18.60;99.90
56512;DHT22;42408;53.238;5.686;2023-05-24T15:27:50;18.60;99.90
56512;DHT22;42408;53.238;5.686;2023-05-24T15:30:18;18.70;99.90
56512;DHT22;42408;53.238;5.686;2023-05-24T15:32:44;18.70;99.90
56512;DHT22;42408;53.238;5.686;2023-05-24T15:35:12;18.60;99.90
56512;DHT22;42408;53.238;5.686;2023-05-24T15:37:38;18.50;99.90
56512;DHT22;42408;53.238;5.686;2023-05-24T15:40:07;18.50;99.90
56512;DHT22;42408;53.238;5.686;2023-05-24T15:42:33;18.40;99.90
56512;DHT22;42408;53.238;5.686;2023-05-24T15:44:58;18.30;99.90